Time,TemperatureF,DewpointF,PressureIn,WindDirection,WindDirectionDegrees,WindSpeedMPH,WindSpeedGustMPH,Humidity,HourlyPrecipIn,Conditions,Clouds,dailyrainin,SoftwareType,DateUTC
2014-03-25 00:00:00,44.6,39.1,29.78,SE,135,0.0,0.7,81,0.00,,,0.00,pywws,2014-03-25 00:00:00,
2014-03-25 00:05:00,44.4,39.3,29.78,East,90,0.0,0.7,82,0.00,,,0.00,pywws,2014-03-25 00:05:00,
2014-03-25 00:11:00,44.4,39.3,29.78,SE,135,0.7,2.2,82,0.00,,,0.00,pywws,2014-03-25 00:11:00,
2014-03-25 00:17:00,44.2,39.4,29.78,SE,135,1.6,3.1,83,0.00,,,0.00,pywws,2014-03-25 00:17:00,
2014-03-25 00:22:00,44.2,39.4,29.77,East,90,1.6,3.8,83,0.00,,,0.00,pywws,2014-03-25 00:22:00,
2014-03-25 00:28:00,44.1,39.2,29.78,SE,135,0.7,2.2,83,0.00,,,0.00,pywws,2014-03-25 00:28:00,
2014-03-25 00:34:00,44.1,39.2,29.77,ENE,68,1.6,2.2,83,0.00,,,0.00,pywws,2014-03-25 00:34:00,
2014-03-25 00:39:00,44.1,39.5,29.77,East,90,1.6,2.2,84,0.00,,,0.00,pywws,2014-03-25 00:39:00,
2014-03-25 00:45:00,44.1,39.5,29.77,SE,135,2.2,3.8,84,0.00,,,0.00,pywws,2014-03-25 00:45:00,
2014-03-25 00:50:00,44.1,39.5,29.77,SE,135,0.7,1.6,84,0.00,,,0.00,pywws,2014-03-25 00:50:00,
2014-03-25 00:56:00,44.2,40.0,29.76,East,90,1.6,3.8,85,0.00,,,0.00,pywws,2014-03-25 00:56:00,
2014-03-25 01:01:00,44.4,40.2,29.76,South,180,2.2,3.8,85,0.00,,,0.00,pywws,2014-03-25 01:01:00,
2014-03-25 01:07:00,44.4,40.5,29.76,NW,315,0.7,2.2,86,0.00,,,0.00,pywws,2014-03-25 01:07:00,
2014-03-25 01:13:00,44.4,40.5,29.76,South,180,0.7,3.1,86,0.00,,,0.00,pywws,2014-03-25 01:13:00,
2014-03-25 01:18:00,44.4,40.5,29.75,East,90,2.2,3.8,86,0.00,,,0.00,pywws,2014-03-25 01:18:00,
2014-03-25 01:24:00,44.4,40.5,29.75,SE,135,1.6,3.8,86,0.00,,,0.00,pywws,2014-03-25 01:24:00,
2014-03-25 01:29:00,44.4,40.5,29.75,South,180,1.6,5.4,86,0.00,,,0.00,pywws,2014-03-25 01:29:00,
2014-03-25 01:35:00,44.4,40.5,29.75,SE,135,3.1,5.4,86,0.00,,,0.00,pywws,2014-03-25 01:35:00,
2014-03-25 01:41:00,44.4,40.5,29.75,SE,135,2.2,3.8,86,0.00,,,0.00,pywws,2014-03-25 01:41:00,
2014-03-25 01:46:00,44.2,40.3,29.75,East,90,2.2,4.5,86,0.00,,,0.00,pywws,2014-03-25 01:46:00,
2014-03-25 01:52:00,44.2,40.3,29.74,West,270,1.6,3.8,86,0.00,,,0.00,pywws,2014-03-25 01:52:00,
2014-03-25 01:57:00,44.2,40.3,29.74,SE,135,2.2,3.8,86,0.00,,,0.00,pywws,2014-03-25 01:57:00,
2014-03-25 02:03:00,44.1,40.1,29.73,SE,135,0.7,2.2,86,0.00,,,0.00,pywws,2014-03-25 02:03:00,
2014-03-25 02:09:00,44.1,39.8,29.73,East,90,2.2,5.4,85,0.00,,,0.00,pywws,2014-03-25 02:09:00,
2014-03-25 02:14:00,44.1,39.8,29.73,SE,135,1.6,3.8,85,0.00,,,0.00,pywws,2014-03-25 02:14:00,
2014-03-25 02:20:00,44.1,39.5,29.73,South,180,3.8,7.6,84,0.00,,,0.00,pywws,2014-03-25 02:20:00,
2014-03-25 02:25:00,44.1,39.5,29.72,SSW,202,3.8,5.4,84,0.00,,,0.00,pywws,2014-03-25 02:25:00,
2014-03-25 02:31:00,44.1,39.5,29.72,East,90,0.7,1.6,84,0.00,,,0.00,pywws,2014-03-25 02:31:00,
2014-03-25 02:37:00,43.9,39.4,29.72,North,0,0.7,2.2,84,0.00,,,0.00,pywws,2014-03-25 02:37:00,
2014-03-25 02:42:00,43.7,39.2,29.72,South,180,2.2,4.5,84,0.00,,,0.00,pywws,2014-03-25 02:42:00,
2014-03-25 02:48:00,43.7,39.2,29.72,South,180,2.2,3.1,84,0.00,,,0.00,pywws,2014-03-25 02:48:00,
2014-03-25 02:54:00,43.9,39.4,29.72,South,180,2.2,5.4,84,0.00,,,0.00,pywws,2014-03-25 02:54:00,
2014-03-25 02:59:00,43.9,39.4,29.72,East,90,1.6,3.1,84,0.00,,,0.00,pywws,2014-03-25 02:59:00,
2014-03-25 03:05:00,43.7,39.2,29.71,East,90,3.8,6.9,84,0.00,,,0.00,pywws,2014-03-25 03:05:00,
2014-03-25 03:10:00,43.9,39.4,29.71,SE,135,1.6,3.1,84,0.00,,,0.00,pywws,2014-03-25 03:10:00,
2014-03-25 03:16:00,43.9,39.4,29.71,NE,45,0.7,2.2,84,0.00,,,0.00,pywws,2014-03-25 03:16:00,
2014-03-25 03:21:00,43.9,39.4,29.70,NNE,22,4.5,6.0,84,0.00,,,0.00,pywws,2014-03-25 03:21:00,
2014-03-25 03:27:00,43.9,39.4,29.70,SE,135,1.6,5.4,84,0.00,,,0.00,pywws,2014-03-25 03:27:00,
2014-03-25 03:33:00,43.7,39.2,29.70,SW,225,3.1,5.4,84,0.00,,,0.00,pywws,2014-03-25 03:33:00,
2014-03-25 03:38:00,43.7,39.2,29.70,South,180,3.1,6.9,84,0.00,,,0.00,pywws,2014-03-25 03:38:00,
2014-03-25 03:44:00,43.7,39.2,29.70,SE,135,2.2,5.4,84,0.00,,,0.00,pywws,2014-03-25 03:44:00,
2014-03-25 03:49:00,43.7,39.2,29.70,East,90,3.1,3.8,84,0.00,,,0.00,pywws,2014-03-25 03:49:00,
2014-03-25 03:55:00,43.7,39.2,29.70,East,90,1.6,4.5,84,0.00,,,0.00,pywws,2014-03-25 03:55:00,
2014-03-25 03:57:00,43.7,39.2,29.70,East,90,2.2,4.5,84,0.00,,,0.00,pywws,2014-03-25 03:57:00,
2014-03-25 04:01:00,43.7,39.2,29.69,South,180,1.6,3.8,84,0.00,,,0.00,pywws,2014-03-25 04:01:00,
2014-03-25 04:03:00,43.7,39.2,29.70,SW,225,1.6,3.1,84,0.00,,,0.00,pywws,2014-03-25 04:03:00,
2014-03-25 04:04:00,43.7,39.2,29.70,NE,45,0.7,1.6,84,0.00,,,0.00,pywws,2014-03-25 04:04:00,
2014-03-25 04:09:00,43.5,39.0,29.69,NW,315,3.1,3.8,84,0.00,,,0.00,pywws,2014-03-25 04:09:00,
2014-03-25 04:10:00,43.5,39.0,29.70,East,90,3.1,3.8,84,0.00,,,0.00,pywws,2014-03-25 04:10:00,
2014-03-25 04:16:00,43.7,39.2,29.69,South,180,3.8,6.0,84,0.00,,,0.00,pywws,2014-03-25 04:16:00,
2014-03-25 04:21:00,43.7,39.2,29.69,SE,135,2.2,4.5,84,0.00,,,0.00,pywws,2014-03-25 04:21:00,
2014-03-25 04:27:00,43.7,39.5,29.69,East,90,3.1,5.4,85,0.00,,,0.00,pywws,2014-03-25 04:27:00,
2014-03-25 04:33:00,43.7,39.5,29.69,East,90,3.1,5.4,85,0.00,,,0.00,pywws,2014-03-25 04:33:00,
2014-03-25 04:38:00,43.7,39.5,29.68,East,90,1.6,4.5,85,0.00,,,0.00,pywws,2014-03-25 04:38:00,
2014-03-25 04:44:00,43.7,39.5,29.69,SE,135,1.6,3.8,85,0.00,,,0.00,pywws,2014-03-25 04:44:00,
2014-03-25 04:49:00,43.7,39.5,29.69,SE,135,3.1,6.9,85,0.00,,,0.00,pywws,2014-03-25 04:49:00,
2014-03-25 04:55:00,43.7,39.5,29.68,NW,315,1.6,3.8,85,0.00,,,0.00,pywws,2014-03-25 04:55:00,
2014-03-25 05:01:00,43.7,39.8,29.68,East,90,0.7,2.2,86,0.00,,,0.00,pywws,2014-03-25 05:01:00,
2014-03-25 05:06:00,43.7,39.8,29.68,NW,315,3.1,5.4,86,0.00,,,0.00,pywws,2014-03-25 05:06:00,
2014-03-25 05:12:00,43.7,39.8,29.68,SE,135,2.2,4.5,86,0.01,,,0.01,pywws,2014-03-25 05:12:00,
2014-03-25 05:17:00,43.7,39.8,29.68,East,90,1.6,3.8,86,0.01,,,0.01,pywws,2014-03-25 05:17:00,
2014-03-25 05:23:00,43.7,39.8,29.68,SSE,158,2.2,3.8,86,0.01,,,0.01,pywws,2014-03-25 05:23:00,
2014-03-25 05:25:00,43.7,39.8,29.68,South,180,1.6,2.2,86,0.01,,,0.01,pywws,2014-03-25 05:25:00,
2014-03-25 05:30:00,43.7,39.8,29.68,NE,45,0.0,0.7,86,0.01,,,0.01,pywws,2014-03-25 05:30:00,
2014-03-25 05:36:00,43.7,40.1,29.68,SE,135,1.6,4.5,87,0.01,,,0.01,pywws,2014-03-25 05:36:00,
2014-03-25 05:41:00,43.7,40.1,29.68,East,90,1.6,3.1,87,0.01,,,0.01,pywws,2014-03-25 05:41:00,
2014-03-25 05:47:00,43.7,40.1,29.68,SE,135,0.7,1.6,87,0.01,,,0.01,pywws,2014-03-25 05:47:00,
2014-03-25 05:53:00,43.7,40.1,29.68,SE,135,2.2,3.8,87,0.01,,,0.01,pywws,2014-03-25 05:53:00,
2014-03-25 05:58:00,43.7,40.4,29.68,SE,135,1.6,3.8,88,0.01,,,0.01,pywws,2014-03-25 05:58:00,
2014-03-25 06:04:00,43.7,40.4,29.68,SE,135,3.1,3.8,88,0.01,,,0.01,pywws,2014-03-25 06:04:00,
2014-03-25 06:09:00,43.7,40.4,29.68,SW,225,1.6,4.5,88,0.01,,,0.01,pywws,2014-03-25 06:09:00,
2014-03-25 06:15:00,43.7,40.4,29.69,East,90,1.6,2.2,88,0.00,,,0.01,pywws,2014-03-25 06:15:00,
2014-03-25 06:21:00,43.7,40.7,29.69,East,90,1.6,3.8,89,0.00,,,0.01,pywws,2014-03-25 06:21:00,
2014-03-25 06:26:00,43.7,40.7,29.69,NE,45,2.2,3.8,89,0.01,,,0.02,pywws,2014-03-25 06:26:00,
2014-03-25 06:32:00,43.7,40.7,29.69,SE,135,0.7,3.1,89,0.01,,,0.02,pywws,2014-03-25 06:32:00,
2014-03-25 06:37:00,43.7,41.0,29.68,South,180,2.2,4.5,90,0.01,,,0.02,pywws,2014-03-25 06:37:00,
2014-03-25 06:43:00,43.7,41.0,29.68,SE,135,2.2,3.8,90,0.02,,,0.04,pywws,2014-03-25 06:43:00,
2014-03-25 06:49:00,43.9,41.1,29.69,SE,135,1.6,3.8,90,0.02,,,0.04,pywws,2014-03-25 06:49:00,
2014-03-25 06:54:00,43.9,41.4,29.69,South,180,1.6,3.8,91,0.02,,,0.04,pywws,2014-03-25 06:54:00,
2014-03-25 07:00:00,43.9,41.4,29.69,SE,135,3.1,4.5,91,0.02,,,0.04,pywws,2014-03-25 07:00:00,
2014-03-25 07:05:00,43.9,41.4,29.69,South,180,2.2,6.9,91,0.02,,,0.04,pywws,2014-03-25 07:05:00,
2014-03-25 07:11:00,43.9,41.4,29.69,SE,135,0.7,1.6,91,0.02,,,0.04,pywws,2014-03-25 07:11:00,
2014-03-25 07:17:00,44.1,41.6,29.69,East,90,0.7,2.2,91,0.04,,,0.05,pywws,2014-03-25 07:17:00,
2014-03-25 07:22:00,44.1,41.6,29.69,SE,135,0.7,3.1,91,0.02,,,0.05,pywws,2014-03-25 07:22:00,
2014-03-25 07:28:00,44.1,41.6,29.70,South,180,0.7,1.6,91,0.02,,,0.05,pywws,2014-03-25 07:28:00,
2014-03-25 07:33:00,44.2,41.8,29.69,North,0,0.7,2.2,91,0.02,,,0.05,pywws,2014-03-25 07:33:00,
2014-03-25 07:39:00,44.2,41.8,29.69,SE,135,0.0,1.6,91,0.02,,,0.05,pywws,2014-03-25 07:39:00,
2014-03-25 07:45:00,44.4,42.2,29.69,SE,135,0.0,2.2,92,0.02,,,0.06,pywws,2014-03-25 07:45:00,
2014-03-25 07:50:00,44.6,42.4,29.69,SE,135,1.6,2.2,92,0.02,,,0.06,pywws,2014-03-25 07:50:00,
2014-03-25 07:56:00,44.8,42.6,29.69,South,180,3.1,4.5,92,0.02,,,0.06,pywws,2014-03-25 07:56:00,
2014-03-25 08:01:00,45.0,42.8,29.69,East,90,1.6,3.1,92,0.02,,,0.06,pywws,2014-03-25 08:01:00,
2014-03-25 08:07:00,45.3,43.1,29.69,East,90,0.7,1.6,92,0.02,,,0.06,pywws,2014-03-25 08:07:00,
2014-03-25 08:13:00,45.5,43.3,29.69,SE,135,0.7,2.2,92,0.01,,,0.06,pywws,2014-03-25 08:13:00,
2014-03-25 08:18:00,45.7,43.5,29.69,South,180,2.2,3.8,92,0.01,,,0.06,pywws,2014-03-25 08:18:00,
2014-03-25 08:24:00,45.9,43.4,29.69,East,90,2.2,3.8,91,0.01,,,0.06,pywws,2014-03-25 08:24:00,
2014-03-25 08:29:00,46.0,43.6,29.70,East,90,1.6,3.1,91,0.01,,,0.06,pywws,2014-03-25 08:29:00,
2014-03-25 08:35:00,46.2,43.7,29.70,East,90,2.2,3.8,91,0.01,,,0.06,pywws,2014-03-25 08:35:00,
2014-03-25 08:41:00,46.2,43.5,29.70,SE,135,0.7,3.8,90,0.01,,,0.06,pywws,2014-03-25 08:41:00,
2014-03-25 08:46:00,46.4,43.6,29.70,NW,315,2.2,3.8,90,0.00,,,0.06,pywws,2014-03-25 08:46:00,
2014-03-25 08:52:00,46.4,43.3,29.70,SE,135,2.2,3.8,89,0.00,,,0.06,pywws,2014-03-25 08:52:00,
2014-03-25 08:57:00,46.6,43.5,29.70,North,0,1.6,2.2,89,0.00,,,0.06,pywws,2014-03-25 08:57:00,
2014-03-25 09:03:00,46.9,43.9,29.70,SE,135,3.1,3.8,89,0.01,,,0.07,pywws,2014-03-25 09:03:00,
2014-03-25 09:09:00,46.9,43.6,29.70,SE,135,1.6,2.2,88,0.01,,,0.07,pywws,2014-03-25 09:09:00,
2014-03-25 09:14:00,47.1,43.8,29.70,SE,135,3.8,7.6,88,0.01,,,0.07,pywws,2014-03-25 09:14:00,
2014-03-25 09:20:00,47.1,43.5,29.70,NE,45,2.2,5.4,87,0.01,,,0.07,pywws,2014-03-25 09:20:00,
2014-03-25 09:25:00,47.3,43.6,29.70,SSE,158,2.2,4.5,87,0.01,,,0.07,pywws,2014-03-25 09:25:00,
2014-03-25 09:31:00,47.5,43.8,29.70,South,180,0.7,1.6,87,0.01,,,0.07,pywws,2014-03-25 09:31:00,
2014-03-25 09:37:00,48.0,44.3,29.70,South,180,1.6,3.1,87,0.01,,,0.07,pywws,2014-03-25 09:37:00,
2014-03-25 09:42:00,48.2,44.2,29.70,East,90,3.1,5.4,86,0.01,,,0.07,pywws,2014-03-25 09:42:00,
2014-03-25 09:48:00,48.0,44.0,29.70,East,90,1.6,3.1,86,0.01,,,0.07,pywws,2014-03-25 09:48:00,
2014-03-25 09:53:00,48.0,44.0,29.70,SE,135,1.6,3.1,86,0.01,,,0.07,pywws,2014-03-25 09:53:00,
2014-03-25 09:59:00,47.3,43.0,29.70,NE,45,3.8,5.4,85,0.00,,,0.07,pywws,2014-03-25 09:59:00,
2014-03-25 10:05:00,46.9,42.7,29.70,SE,135,1.6,3.1,85,0.00,,,0.07,pywws,2014-03-25 10:05:00,
2014-03-25 10:10:00,46.8,42.5,29.70,East,90,0.7,2.2,85,0.00,,,0.07,pywws,2014-03-25 10:10:00,
2014-03-25 10:16:00,46.9,43.0,29.70,North,0,1.6,3.8,86,0.00,,,0.07,pywws,2014-03-25 10:16:00,
2014-03-25 10:21:00,46.9,43.0,29.70,SE,135,1.6,2.2,86,0.00,,,0.07,pywws,2014-03-25 10:21:00,
2014-03-25 10:27:00,46.6,42.6,29.70,SE,135,1.6,3.8,86,0.00,,,0.07,pywws,2014-03-25 10:27:00,
2014-03-25 10:33:00,46.6,42.6,29.70,SE,135,3.8,6.0,86,0.00,,,0.07,pywws,2014-03-25 10:33:00,
2014-03-25 10:38:00,46.2,42.0,29.70,East,90,3.8,6.9,85,0.00,,,0.07,pywws,2014-03-25 10:38:00,
2014-03-25 10:44:00,45.9,41.6,29.71,North,0,2.2,6.0,85,0.00,,,0.07,pywws,2014-03-25 10:44:00,
2014-03-25 10:49:00,45.9,41.9,29.71,NNE,22,1.6,3.8,86,0.00,,,0.07,pywws,2014-03-25 10:49:00,
2014-03-25 10:55:00,45.9,41.9,29.70,East,90,0.7,3.1,86,0.00,,,0.07,pywws,2014-03-25 10:55:00,
2014-03-25 11:01:00,46.4,42.7,29.70,South,180,0.7,3.1,87,0.00,,,0.07,pywws,2014-03-25 11:01:00,
2014-03-25 11:06:00,46.4,42.4,29.71,NE,45,1.6,2.2,86,0.00,,,0.07,pywws,2014-03-25 11:06:00,
2014-03-25 11:12:00,46.4,42.4,29.71,SE,135,2.2,3.1,86,0.00,,,0.07,pywws,2014-03-25 11:12:00,
2014-03-25 11:17:00,46.2,42.3,29.71,SE,135,3.1,6.9,86,0.00,,,0.07,pywws,2014-03-25 11:17:00,
2014-03-25 11:23:00,46.4,42.4,29.71,East,90,3.8,5.4,86,0.00,,,0.07,pywws,2014-03-25 11:23:00,
2014-03-25 11:29:00,46.6,42.6,29.71,South,180,1.6,3.8,86,0.00,,,0.07,pywws,2014-03-25 11:29:00,
2014-03-25 11:34:00,46.9,43.0,29.71,East,90,1.6,2.2,86,0.00,,,0.07,pywws,2014-03-25 11:34:00,
2014-03-25 11:40:00,47.3,43.3,29.71,North,0,3.1,6.0,86,0.00,,,0.07,pywws,2014-03-25 11:40:00,
2014-03-25 11:45:00,46.9,42.7,29.71,NE,45,1.6,3.8,85,0.00,,,0.07,pywws,2014-03-25 11:45:00,
2014-03-25 11:51:00,46.9,42.7,29.71,SW,225,2.2,6.0,85,0.00,,,0.07,pywws,2014-03-25 11:51:00,
2014-03-25 11:57:00,46.9,42.4,29.71,NW,315,1.6,2.2,84,0.00,,,0.07,pywws,2014-03-25 11:57:00,
2014-03-25 12:02:00,47.1,42.5,29.71,East,90,2.2,3.8,84,0.00,,,0.07,pywws,2014-03-25 12:02:00,
2014-03-25 12:08:00,48.0,43.7,29.72,East,90,5.4,7.6,85,0.00,,,0.07,pywws,2014-03-25 12:08:00,
2014-03-25 12:13:00,48.4,44.1,29.72,SE,135,3.1,4.5,85,0.00,,,0.07,pywws,2014-03-25 12:13:00,
2014-03-25 12:19:00,49.1,44.5,29.72,East,90,3.1,6.0,84,0.00,,,0.07,pywws,2014-03-25 12:19:00,
2014-03-25 12:25:00,49.8,44.5,29.72,SE,135,3.1,6.0,82,0.00,,,0.07,pywws,2014-03-25 12:25:00,
2014-03-25 12:30:00,49.6,43.7,29.72,East,90,3.8,6.9,80,0.01,,,0.08,pywws,2014-03-25 12:30:00,
2014-03-25 12:36:00,48.9,43.0,29.72,SE,135,2.2,5.4,80,0.01,,,0.08,pywws,2014-03-25 12:36:00,
2014-03-25 12:42:00,48.9,43.3,29.72,NE,45,1.6,3.1,81,0.01,,,0.08,pywws,2014-03-25 12:42:00,
2014-03-25 12:47:00,49.3,43.4,29.72,East,90,3.1,5.4,80,0.01,,,0.08,pywws,2014-03-25 12:47:00,
2014-03-25 12:53:00,48.7,42.2,29.72,SE,135,3.1,5.4,78,0.01,,,0.08,pywws,2014-03-25 12:53:00,
2014-03-25 12:58:00,49.5,42.9,29.72,South,180,3.8,5.4,78,0.01,,,0.08,pywws,2014-03-25 12:58:00,
2014-03-25 13:04:00,48.9,42.0,29.73,South,180,1.6,3.1,77,0.01,,,0.08,pywws,2014-03-25 13:04:00,
2014-03-25 13:09:00,48.9,42.4,29.73,NE,45,1.6,6.0,78,0.01,,,0.08,pywws,2014-03-25 13:09:00,
2014-03-25 13:15:00,49.3,42.7,29.73,SW,225,1.6,3.1,78,0.01,,,0.08,pywws,2014-03-25 13:15:00,
2014-03-25 13:21:00,49.3,42.7,29.73,NNE,22,3.1,5.4,78,0.01,,,0.08,pywws,2014-03-25 13:21:00,
2014-03-25 13:26:00,48.7,42.2,29.73,East,90,3.8,7.6,78,0.00,,,0.08,pywws,2014-03-25 13:26:00,
2014-03-25 13:32:00,48.4,41.8,29.73,West,270,2.2,4.5,78,0.00,,,0.08,pywws,2014-03-25 13:32:00,
2014-03-25 13:37:00,47.8,41.3,29.73,East,90,3.1,6.0,78,0.00,,,0.08,pywws,2014-03-25 13:37:00,
2014-03-25 13:43:00,47.7,41.1,29.73,SE,135,3.1,5.4,78,0.00,,,0.08,pywws,2014-03-25 13:43:00,
2014-03-25 13:49:00,47.7,41.1,29.73,East,90,3.1,5.4,78,0.00,,,0.08,pywws,2014-03-25 13:49:00,
2014-03-25 13:54:00,47.8,41.3,29.74,East,90,4.5,7.6,78,0.00,,,0.08,pywws,2014-03-25 13:54:00,
2014-03-25 14:00:00,47.8,40.6,29.75,SE,135,1.6,3.1,76,0.00,,,0.08,pywws,2014-03-25 14:00:00,
2014-03-25 14:05:00,48.2,41.3,29.75,East,90,2.2,3.8,77,0.00,,,0.08,pywws,2014-03-25 14:05:00,
2014-03-25 14:11:00,48.7,41.9,29.74,NE,45,3.8,6.9,77,0.00,,,0.08,pywws,2014-03-25 14:11:00,
2014-03-25 14:17:00,48.6,41.3,29.75,SE,135,3.1,4.5,76,0.00,,,0.08,pywws,2014-03-25 14:17:00,
2014-03-25 14:22:00,48.0,40.8,29.75,NW,315,4.5,7.6,76,0.00,,,0.08,pywws,2014-03-25 14:22:00,
2014-03-25 14:28:00,47.3,40.1,29.75,East,90,4.5,7.6,76,0.00,,,0.08,pywws,2014-03-25 14:28:00,
2014-03-25 14:33:00,47.3,40.5,29.75,NE,45,3.1,6.0,77,0.00,,,0.08,pywws,2014-03-25 14:33:00,
2014-03-25 14:39:00,47.7,40.8,29.75,SE,135,2.2,4.5,77,0.00,,,0.08,pywws,2014-03-25 14:39:00,
2014-03-25 14:45:00,47.8,41.0,29.76,NE,45,1.6,3.1,77,0.00,,,0.08,pywws,2014-03-25 14:45:00,
2014-03-25 14:50:00,48.2,41.3,29.76,SSE,158,1.6,3.1,77,0.00,,,0.08,pywws,2014-03-25 14:50:00,
2014-03-25 14:56:00,48.4,40.8,29.76,NE,45,3.1,5.4,75,0.00,,,0.08,pywws,2014-03-25 14:56:00,
2014-03-25 15:01:00,48.6,41.3,29.76,SE,135,4.5,6.9,76,0.00,,,0.08,pywws,2014-03-25 15:01:00,
2014-03-25 15:07:00,48.7,41.2,29.77,South,180,3.1,5.4,75,0.00,,,0.08,pywws,2014-03-25 15:07:00,
2014-03-25 15:13:00,49.1,41.5,29.77,East,90,3.1,6.0,75,0.00,,,0.08,pywws,2014-03-25 15:13:00,
2014-03-25 15:18:00,49.6,41.7,29.77,ENE,68,1.6,5.4,74,0.00,,,0.08,pywws,2014-03-25 15:18:00,
2014-03-25 15:24:00,51.1,42.7,29.78,SSE,158,5.4,7.6,73,0.00,,,0.08,pywws,2014-03-25 15:24:00,
2014-03-25 15:29:00,51.4,41.6,29.78,East,90,3.8,6.0,69,0.00,,,0.08,pywws,2014-03-25 15:29:00,
2014-03-25 15:35:00,51.6,41.0,29.78,East,90,5.4,9.2,67,0.00,,,0.08,pywws,2014-03-25 15:35:00,
2014-03-25 15:41:00,51.4,40.5,29.78,NW,315,1.6,5.4,66,0.00,,,0.08,pywws,2014-03-25 15:41:00,
2014-03-25 15:46:00,51.3,40.7,29.78,South,180,1.6,3.1,67,0.00,,,0.08,pywws,2014-03-25 15:46:00,
2014-03-25 15:52:00,50.7,40.2,29.78,South,180,2.2,5.4,67,0.00,,,0.08,pywws,2014-03-25 15:52:00,
2014-03-25 15:57:00,50.4,40.2,29.79,NE,45,2.2,6.0,68,0.00,,,0.08,pywws,2014-03-25 15:57:00,
2014-03-25 16:03:00,50.0,39.9,29.79,North,0,3.1,5.4,68,0.00,,,0.08,pywws,2014-03-25 16:03:00,
2014-03-25 16:09:00,49.8,40.1,29.79,North,0,3.1,7.6,69,0.00,,,0.08,pywws,2014-03-25 16:09:00,
2014-03-25 16:14:00,49.1,39.0,29.80,East,90,3.1,6.0,68,0.00,,,0.08,pywws,2014-03-25 16:14:00,
2014-03-25 16:20:00,48.6,38.9,29.80,South,180,0.7,2.2,69,0.00,,,0.08,pywws,2014-03-25 16:20:00,
2014-03-25 16:25:00,48.6,38.9,29.80,SE,135,2.2,4.5,69,0.00,,,0.08,pywws,2014-03-25 16:25:00,
2014-03-25 16:31:00,48.4,39.1,29.80,East,90,0.7,1.6,70,0.00,,,0.08,pywws,2014-03-25 16:31:00,
2014-03-25 16:37:00,48.4,39.1,29.81,NE,45,1.6,3.8,70,0.00,,,0.08,pywws,2014-03-25 16:37:00,
2014-03-25 16:42:00,48.6,39.6,29.81,North,0,2.2,4.5,71,0.00,,,0.08,pywws,2014-03-25 16:42:00,
2014-03-25 16:48:00,48.9,40.7,29.81,North,0,2.2,5.4,73,0.00,,,0.08,pywws,2014-03-25 16:48:00,
2014-03-25 16:53:00,49.3,41.0,29.82,East,90,2.2,3.8,73,0.00,,,0.08,pywws,2014-03-25 16:53:00,
2014-03-25 16:59:00,49.8,41.2,29.81,NE,45,2.2,5.4,72,0.00,,,0.08,pywws,2014-03-25 16:59:00,
2014-03-25 17:05:00,49.5,40.5,29.82,SW,225,2.2,4.5,71,0.00,,,0.08,pywws,2014-03-25 17:05:00,
2014-03-25 17:10:00,49.1,40.8,29.83,East,90,2.2,3.8,73,0.00,,,0.08,pywws,2014-03-25 17:10:00,
2014-03-25 17:16:00,48.9,40.7,29.83,South,180,2.2,6.0,73,0.00,,,0.08,pywws,2014-03-25 17:16:00,
2014-03-25 17:21:00,48.6,39.9,29.84,East,90,0.7,2.2,72,0.00,,,0.08,pywws,2014-03-25 17:21:00,
2014-03-25 17:27:00,48.2,39.6,29.84,North,0,2.2,5.4,72,0.00,,,0.08,pywws,2014-03-25 17:27:00,
2014-03-25 17:33:00,47.8,39.3,29.85,East,90,3.1,8.3,72,0.00,,,0.08,pywws,2014-03-25 17:33:00,
2014-03-25 17:38:00,47.5,38.9,29.85,SE,135,1.6,3.1,72,0.00,,,0.08,pywws,2014-03-25 17:38:00,
2014-03-25 17:44:00,47.3,38.7,29.85,North,0,0.7,2.2,72,0.00,,,0.08,pywws,2014-03-25 17:44:00,
2014-03-25 17:49:00,47.1,38.6,29.86,West,270,0.0,1.6,72,0.00,,,0.08,pywws,2014-03-25 17:49:00,
2014-03-25 17:55:00,46.8,38.6,29.86,NE,45,5.4,6.9,73,0.00,,,0.08,pywws,2014-03-25 17:55:00,
2014-03-25 18:01:00,46.6,38.4,29.86,NE,45,2.2,5.4,73,0.00,,,0.08,pywws,2014-03-25 18:01:00,
2014-03-25 18:06:00,46.6,38.0,29.87,NE,45,2.2,3.8,72,0.00,,,0.08,pywws,2014-03-25 18:06:00,
2014-03-25 18:12:00,46.4,38.2,29.87,SE,135,1.6,2.2,73,0.00,,,0.08,pywws,2014-03-25 18:12:00,
2014-03-25 18:17:00,46.4,38.2,29.88,North,0,2.2,3.8,73,0.00,,,0.08,pywws,2014-03-25 18:17:00,
2014-03-25 18:23:00,46.4,38.2,29.88,North,0,0.0,1.6,73,0.00,,,0.08,pywws,2014-03-25 18:23:00,
2014-03-25 18:29:00,46.4,38.2,29.88,East,90,0.7,2.2,73,0.00,,,0.08,pywws,2014-03-25 18:29:00,
2014-03-25 18:34:00,46.4,38.2,29.88,NE,45,1.6,2.2,73,0.00,,,0.08,pywws,2014-03-25 18:34:00,
2014-03-25 18:40:00,46.2,38.1,29.89,North,0,2.2,5.4,73,0.00,,,0.08,pywws,2014-03-25 18:40:00,
2014-03-25 18:45:00,46.2,38.1,29.89,NW,315,1.6,3.8,73,0.00,,,0.08,pywws,2014-03-25 18:45:00,
2014-03-25 18:51:00,46.2,38.1,29.90,South,180,0.7,2.2,73,0.00,,,0.08,pywws,2014-03-25 18:51:00,
2014-03-25 18:57:00,46.0,37.9,29.90,SE,135,1.6,3.1,73,0.00,,,0.08,pywws,2014-03-25 18:57:00,
2014-03-25 19:02:00,45.9,37.7,29.91,SSE,158,1.6,3.1,73,0.00,,,0.08,pywws,2014-03-25 19:02:00,
2014-03-25 19:08:00,45.7,37.9,29.91,NE,45,0.7,2.2,74,0.00,,,0.08,pywws,2014-03-25 19:08:00,
2014-03-25 19:13:00,45.3,37.5,29.91,South,180,1.6,3.1,74,0.00,,,0.08,pywws,2014-03-25 19:13:00,
2014-03-25 19:19:00,45.1,37.4,29.92,NE,45,0.7,1.6,74,0.00,,,0.08,pywws,2014-03-25 19:19:00,
2014-03-25 19:25:00,44.8,37.3,29.92,NE,45,0.7,2.2,75,0.00,,,0.08,pywws,2014-03-25 19:25:00,
2014-03-25 19:30:00,44.6,37.2,29.92,SW,225,1.6,3.8,75,0.00,,,0.08,pywws,2014-03-25 19:30:00,
2014-03-25 19:36:00,44.4,37.3,29.93,North,0,1.6,3.1,76,0.00,,,0.08,pywws,2014-03-25 19:36:00,
2014-03-25 19:41:00,44.6,37.5,29.93,South,180,2.2,5.4,76,0.00,,,0.08,pywws,2014-03-25 19:41:00,
2014-03-25 19:47:00,44.8,37.7,29.93,North,0,3.1,6.9,76,0.00,,,0.08,pywws,2014-03-25 19:47:00,
2014-03-25 19:53:00,45.0,37.9,29.93,NE,45,1.6,3.1,76,0.00,,,0.08,pywws,2014-03-25 19:53:00,
2014-03-25 19:58:00,45.0,37.9,29.94,North,0,2.2,3.8,76,0.00,,,0.08,pywws,2014-03-25 19:58:00,
2014-03-25 20:04:00,45.0,37.5,29.94,SW,225,1.6,3.1,75,0.00,,,0.08,pywws,2014-03-25 20:04:00,
2014-03-25 20:09:00,44.8,37.3,29.94,North,0,1.6,5.4,75,0.00,,,0.08,pywws,2014-03-25 20:09:00,
2014-03-25 20:15:00,44.6,37.2,29.94,SE,135,0.7,3.1,75,0.00,,,0.08,pywws,2014-03-25 20:15:00,
2014-03-25 20:21:00,44.6,37.5,29.95,North,0,1.6,3.8,76,0.00,,,0.08,pywws,2014-03-25 20:21:00,
2014-03-25 20:26:00,44.4,37.3,29.95,North,0,0.7,1.6,76,0.00,,,0.08,pywws,2014-03-25 20:26:00,
2014-03-25 20:32:00,44.2,37.2,29.96,SW,225,0.0,0.7,76,0.00,,,0.08,pywws,2014-03-25 20:32:00,
2014-03-25 20:37:00,43.9,37.1,29.96,East,90,1.6,2.2,77,0.00,,,0.08,pywws,2014-03-25 20:37:00,
2014-03-25 20:43:00,43.5,36.8,29.95,NE,45,1.6,2.2,77,0.00,,,0.08,pywws,2014-03-25 20:43:00,
2014-03-25 20:49:00,43.2,36.8,29.96,South,180,1.6,3.1,78,0.00,,,0.08,pywws,2014-03-25 20:49:00,
2014-03-25 20:54:00,43.2,36.8,29.96,North,0,1.6,4.5,78,0.00,,,0.08,pywws,2014-03-25 20:54:00,
2014-03-25 21:00:00,43.0,36.6,29.97,South,180,0.0,1.6,78,0.00,,,0.08,pywws,2014-03-25 21:00:00,
2014-03-25 21:05:00,42.8,36.4,29.97,NW,315,0.0,1.6,78,0.00,,,0.08,pywws,2014-03-25 21:05:00,
2014-03-25 21:11:00,42.4,36.1,29.97,SE,135,0.0,0.7,78,0.00,,,0.08,pywws,2014-03-25 21:11:00,
2014-03-25 21:17:00,42.1,36.0,29.97,NW,315,0.0,1.6,79,0.00,,,0.08,pywws,2014-03-25 21:17:00,
2014-03-25 21:22:00,41.4,35.3,29.98,SE,135,0.0,0.0,79,0.00,,,0.08,pywws,2014-03-25 21:22:00,
2014-03-25 21:28:00,40.8,35.1,29.98,East,90,0.0,0.0,80,0.00,,,0.08,pywws,2014-03-25 21:28:00,
2014-03-25 21:33:00,40.5,34.8,29.98,SE,135,0.0,0.7,80,0.00,,,0.08,pywws,2014-03-25 21:33:00,
2014-03-25 21:39:00,40.5,35.1,29.98,South,180,0.0,0.0,81,0.00,,,0.08,pywws,2014-03-25 21:39:00,
2014-03-25 21:45:00,40.5,35.7,29.98,East,90,1.6,3.8,83,0.00,,,0.08,pywws,2014-03-25 21:45:00,
2014-03-25 21:50:00,41.0,36.5,29.98,North,0,0.7,1.6,84,0.00,,,0.08,pywws,2014-03-25 21:50:00,
2014-03-25 21:56:00,41.2,36.4,29.99,South,180,0.7,1.6,83,0.00,,,0.08,pywws,2014-03-25 21:56:00,
2014-03-25 22:01:00,41.4,36.6,29.99,East,90,0.7,3.1,83,0.00,,,0.08,pywws,2014-03-25 22:01:00,
2014-03-25 22:07:00,41.4,36.6,29.99,ENE,68,2.2,3.8,83,0.00,,,0.08,pywws,2014-03-25 22:07:00,
2014-03-25 22:13:00,41.4,36.6,29.99,East,90,0.7,2.2,83,0.00,,,0.08,pywws,2014-03-25 22:13:00,
2014-03-25 22:18:00,41.5,36.8,29.99,NE,45,0.7,1.6,83,0.00,,,0.08,pywws,2014-03-25 22:18:00,
2014-03-25 22:24:00,41.4,36.6,29.99,East,90,2.2,3.1,83,0.00,,,0.08,pywws,2014-03-25 22:24:00,
2014-03-25 22:29:00,41.4,36.6,29.99,SE,135,0.7,2.2,83,0.00,,,0.08,pywws,2014-03-25 22:29:00,
2014-03-25 22:35:00,41.2,36.4,29.99,East,90,0.0,0.7,83,0.00,,,0.08,pywws,2014-03-25 22:35:00,
2014-03-25 22:40:00,40.8,36.1,30.00,NE,45,0.7,1.6,83,0.00,,,0.08,pywws,2014-03-25 22:40:00,
2014-03-25 22:45:00,40.6,35.9,30.00,NE,45,0.7,3.1,83,0.00,,,0.08,pywws,2014-03-25 22:45:00,
2014-03-25 22:51:00,40.5,35.7,30.00,SE,135,0.0,0.7,83,0.00,,,0.08,pywws,2014-03-25 22:51:00,
2014-03-25 22:57:00,40.3,35.8,30.00,East,90,0.7,1.6,84,0.00,,,0.08,pywws,2014-03-25 22:57:00,
2014-03-25 23:02:00,39.9,35.8,30.00,NW,315,0.7,1.6,85,0.00,,,0.08,pywws,2014-03-25 23:02:00,
2014-03-25 23:08:00,39.9,35.8,30.00,NE,45,1.6,3.1,85,0.00,,,0.08,pywws,2014-03-25 23:08:00,
2014-03-25 23:12:00,40.1,36.0,30.00,East,90,0.0,0.7,85,0.00,,,0.08,pywws,2014-03-25 23:12:00,
2014-03-25 23:17:00,39.9,35.8,30.00,West,270,0.0,0.0,85,0.00,,,0.08,pywws,2014-03-25 23:17:00,
2014-03-25 23:23:00,39.4,35.3,30.01,North,0,0.0,0.0,85,0.00,,,0.08,pywws,2014-03-25 23:23:00,
2014-03-25 23:29:00,39.0,34.9,30.01,NW,315,0.0,0.7,85,0.00,,,0.08,pywws,2014-03-25 23:29:00,
2014-03-25 23:34:00,38.8,34.7,30.00,South,180,0.0,0.0,85,0.00,,,0.08,pywws,2014-03-25 23:34:00,
2014-03-25 23:40:00,38.7,34.8,30.00,SW,225,0.0,0.0,86,0.00,,,0.08,pywws,2014-03-25 23:40:00,
2014-03-25 23:45:00,38.5,33.5,30.01,NE,45,0.0,0.0,82,0.00,,,0.08,pywws,2014-03-25 23:45:00,
2014-03-25 23:51:00,38.5,33.5,30.00,NW,315,0.0,0.7,82,0.00,,,0.08,pywws,2014-03-25 23:51:00,
2014-03-25 23:57:00,38.1,33.1,30.01,NW,315,0.0,0.0,82,0.00,,,0.08,pywws,2014-03-25 23:57:00,